createdAt,value
2022-12-10T00:01:19.945Z,5.53
2022-12-10T00:04:22.693Z,5.10
2022-12-10T00:07:24.824Z,6.17
2022-12-10T00:10:26.917Z,5.60
2022-12-10T00:13:29.107Z,5.70
2022-12-10T00:16:35.378Z,5.60
2022-12-10T00:19:37.673Z,5.90
2022-12-10T00:22:39.809Z,5.27
2022-12-10T00:25:42.625Z,5.20
2022-12-10T00:28:45.714Z,5.13
2022-12-10T00:31:47.742Z,5.03
2022-12-10T00:34:49.906Z,5.10
2022-12-10T00:37:51.926Z,4.77
2022-12-10T00:40:53.963Z,4.60
2022-12-10T00:43:56.113Z,4.53
2022-12-10T00:46:58.113Z,4.40
2022-12-10T00:50:00.983Z,5.33
2022-12-10T00:53:03.103Z,4.40
2022-12-10T00:56:05.934Z,4.50
2022-12-10T00:59:08.039Z,4.47
2022-12-10T01:02:10.734Z,4.87
2022-12-10T01:05:13.355Z,3.60
2022-12-10T01:08:15.456Z,3.77
2022-12-10T01:11:20.217Z,3.83
2022-12-10T01:14:28.117Z,4.17
2022-12-10T01:17:31.296Z,4.30
2022-12-10T01:20:36.457Z,3.80
2022-12-10T01:23:42.205Z,4.07
2022-12-10T01:26:44.200Z,3.73
2022-12-10T01:29:46.265Z,4.10
2022-12-10T01:32:48.277Z,3.97
2022-12-10T01:35:50.432Z,4.80
2022-12-10T01:38:53.588Z,3.60
2022-12-10T01:41:58.295Z,3.70
2022-12-10T01:45:07.992Z,4.50
2022-12-10T01:48:10.080Z,3.80
2022-12-10T01:51:13.748Z,4.10
2022-12-10T01:54:20.387Z,4.20
2022-12-10T01:57:28.463Z,4.60
2022-12-10T02:00:35.857Z,3.67
2022-12-10T02:04:12.035Z,3.67
2022-12-10T02:07:17.197Z,3.87
2022-12-10T02:10:56.219Z,4.23
2022-12-10T02:14:13.915Z,4.10
2022-12-10T02:17:24.015Z,4.80
2022-12-10T02:20:37.988Z,4.57
2022-12-10T02:23:50.562Z,4.90
2022-12-10T02:27:08.054Z,4.70
2022-12-10T02:30:10.818Z,5.10
2022-12-10T02:33:15.294Z,5.27
2022-12-10T02:36:20.033Z,4.93
2022-12-10T02:39:32.259Z,5.07
2022-12-10T02:42:39.958Z,4.87
2022-12-10T02:45:44.849Z,5.60
2022-12-10T02:48:50.265Z,5.30
2022-12-10T02:51:54.123Z,5.50
2022-12-10T02:54:57.303Z,5.33
2022-12-10T02:58:18.594Z,5.17
2022-12-10T03:01:43.125Z,5.13
2022-12-10T03:05:03.396Z,5.40
2022-12-10T03:08:20.320Z,5.13
2022-12-10T03:11:24.342Z,6.40
2022-12-10T03:14:32.287Z,6.17
2022-12-10T03:17:36.143Z,5.60
2022-12-10T03:20:44.062Z,5.90
2022-12-10T03:23:49.160Z,6.37
2022-12-10T03:26:53.607Z,5.97
2022-12-10T03:29:59.288Z,6.40
2022-12-10T03:33:02.348Z,6.43
2022-12-10T03:36:06.611Z,5.73
2022-12-10T03:39:09.525Z,6.43
2022-12-10T03:42:11.571Z,6.43
2022-12-10T03:45:13.628Z,6.27
2022-12-10T03:48:15.580Z,6.87
2022-12-10T03:51:17.567Z,6.40
2022-12-10T03:54:19.631Z,6.30
2022-12-10T03:57:21.719Z,6.33
2022-12-10T04:00:23.794Z,5.83
2022-12-10T04:03:25.748Z,6.37
2022-12-10T04:06:27.861Z,6.20
2022-12-10T04:09:29.958Z,6.63
2022-12-10T04:12:32.015Z,6.83
2022-12-10T04:15:52.879Z,6.17
2022-12-10T04:19:10.908Z,6.03
2022-12-10T04:22:31.591Z,5.90
2022-12-10T04:25:52.074Z,6.90
2022-12-10T04:28:55.356Z,6.80
2022-12-10T04:31:58.179Z,6.90
2022-12-10T04:35:00.288Z,6.57
2022-12-10T04:38:02.326Z,7.20
2022-12-10T04:41:16.503Z,6.90
2022-12-10T04:44:19.991Z,7.33
2022-12-10T04:47:22.240Z,8.03
2022-12-10T04:50:24.228Z,8.17
2022-12-10T04:53:26.228Z,8.07
2022-12-10T04:56:28.331Z,8.53
2022-12-10T04:59:30.289Z,8.10
2022-12-10T05:02:35.699Z,8.27
2022-12-10T05:05:38.069Z,9.63
2022-12-10T05:08:41.779Z,8.60
2022-12-10T05:11:45.583Z,7.73
2022-12-10T05:14:47.491Z,8.63
2022-12-10T05:17:49.477Z,7.90
2022-12-10T05:20:51.472Z,8.73
2022-12-10T05:23:53.807Z,8.80
2022-12-10T05:26:57.746Z,9.40
2022-12-10T05:29:59.761Z,9.00
2022-12-10T05:33:01.786Z,9.60
2022-12-10T05:36:05.517Z,9.87
2022-12-10T05:39:08.152Z,9.40
2022-12-10T05:42:10.193Z,9.27
2022-12-10T05:45:13.170Z,9.73
2022-12-10T05:48:17.410Z,9.53
2022-12-10T05:51:23.419Z,9.73
2022-12-10T05:54:25.738Z,10.00
2022-12-10T05:57:27.942Z,8.40
2022-12-10T06:00:30.034Z,8.87
2022-12-10T06:03:32.055Z,9.43
2022-12-10T06:06:39.466Z,10.03
2022-12-10T06:09:41.480Z,10.17
2022-12-10T06:12:43.562Z,10.73
2022-12-10T06:15:45.721Z,10.03
2022-12-10T06:18:47.742Z,9.27
2022-12-10T06:21:52.672Z,10.80
2022-12-10T06:24:54.893Z,9.97
2022-12-10T06:27:57.012Z,10.60
2022-12-10T06:31:00.719Z,10.40
2022-12-10T06:34:03.352Z,12.10
2022-12-10T06:37:08.562Z,11.37
2022-12-10T06:40:11.144Z,10.60
2022-12-10T06:43:13.340Z,11.07
2022-12-10T06:46:18.562Z,9.87
2022-12-10T06:49:20.618Z,10.50
2022-12-10T06:52:22.760Z,10.83
2022-12-10T06:55:25.228Z,10.77
2022-12-10T06:58:31.569Z,10.90
2022-12-10T07:01:34.388Z,11.57
2022-12-10T07:04:36.560Z,12.30
2022-12-10T07:07:41.183Z,11.60
2022-12-10T07:10:55.146Z,11.50
2022-12-10T07:14:00.117Z,11.37
2022-12-10T07:17:03.506Z,12.30
2022-12-10T07:20:06.438Z,11.23
2022-12-10T07:23:08.771Z,11.57
2022-12-10T07:26:17.248Z,11.37
2022-12-10T07:29:22.900Z,11.57
2022-12-10T07:32:26.192Z,11.57
2022-12-10T07:35:28.549Z,12.13
2022-12-10T07:38:30.673Z,11.20
2022-12-10T07:41:32.886Z,12.10
2022-12-10T07:44:35.512Z,11.33
2022-12-10T07:47:40.203Z,11.47
2022-12-10T07:50:44.538Z,11.07
2022-12-10T07:53:47.123Z,10.43
2022-12-10T07:56:50.730Z,11.03
2022-12-10T07:59:52.736Z,11.67
2022-12-10T08:02:58.417Z,11.57
2022-12-10T08:06:10.075Z,10.87
2022-12-10T08:09:13.460Z,11.37
2022-12-10T08:12:15.509Z,10.83
2022-12-10T08:15:17.521Z,12.33
2022-12-10T08:18:19.518Z,12.57
2022-12-10T08:21:24.666Z,12.27
2022-12-10T08:24:26.702Z,13.23
2022-12-10T08:27:29.158Z,12.27
2022-12-10T08:30:32.038Z,12.93
2022-12-10T08:33:36.046Z,12.97
2022-12-10T08:36:38.492Z,12.07
2022-12-10T08:39:41.415Z,12.63
2022-12-10T08:42:43.793Z,12.53
2022-12-10T08:45:45.890Z,12.70
2022-12-10T08:48:47.969Z,12.80
2022-12-10T08:51:50.087Z,12.63
2022-12-10T08:54:52.464Z,13.07
2022-12-10T08:57:54.523Z,13.13
2022-12-10T09:00:56.983Z,13.13
2022-12-10T09:03:59.708Z,12.23
2022-12-10T09:07:02.785Z,12.83
2022-12-10T09:10:05.360Z,14.33
2022-12-10T09:13:08.069Z,13.70
2022-12-10T09:16:10.522Z,12.70
2022-12-10T09:19:18.384Z,14.57
2022-12-10T09:22:22.127Z,13.57
2022-12-10T09:25:24.094Z,14.40
2022-12-10T09:28:26.111Z,14.37
2022-12-10T09:31:28.812Z,14.30
2022-12-10T09:34:32.902Z,13.90
2022-12-10T09:37:34.907Z,15.13
2022-12-10T09:40:44.318Z,14.17
2022-12-10T09:43:51.455Z,15.03
2022-12-10T09:46:58.942Z,16.17
2022-12-10T09:50:30.189Z,16.13
2022-12-10T09:53:33.767Z,14.93
2022-12-10T09:56:41.094Z,15.33
2022-12-10T09:59:48.060Z,14.10
2022-12-10T10:02:52.177Z,15.17
2022-12-10T10:05:57.646Z,16.37
2022-12-10T10:09:03.612Z,16.33
2022-12-10T10:12:14.732Z,16.53
2022-12-10T10:15:23.834Z,16.13
2022-12-10T10:18:42.100Z,17.40
2022-12-10T10:21:50.766Z,16.47
2022-12-10T10:24:52.784Z,16.10
2022-12-10T10:27:55.843Z,15.97
2022-12-10T10:30:57.917Z,15.50
2022-12-10T10:34:05.690Z,18.07
2022-12-10T10:37:08.409Z,16.53
2022-12-10T10:40:40.636Z,16.70
2022-12-10T10:43:48.537Z,16.53
2022-12-10T10:46:53.622Z,16.70
2022-12-10T10:49:55.633Z,17.37
2022-12-10T10:52:57.596Z,17.57
2022-12-10T10:56:08.324Z,17.00
2022-12-10T10:59:19.294Z,16.73
2022-12-10T11:02:42.809Z,16.87
2022-12-10T11:05:49.171Z,17.17
2022-12-10T11:08:56.048Z,16.97
2022-12-10T11:12:04.289Z,17.30
2022-12-10T11:15:30.570Z,17.20
2022-12-10T11:18:38.005Z,17.30
2022-12-10T11:21:40.040Z,17.27
2022-12-10T11:24:42.039Z,16.63
2022-12-10T11:28:03.055Z,16.77
2022-12-10T11:31:11.024Z,16.17
2022-12-10T11:34:43.485Z,16.47
2022-12-10T11:37:56.047Z,18.40
2022-12-10T11:41:21.518Z,17.00
2022-12-10T11:44:29.182Z,15.23
2022-12-10T11:47:41.870Z,17.40
2022-12-10T11:51:05.490Z,17.83
2022-12-10T11:54:27.525Z,16.27
2022-12-10T11:57:48.939Z,16.13
2022-12-10T12:01:11.903Z,15.37
2022-12-10T12:04:41.837Z,15.77
2022-12-10T12:07:54.976Z,16.40
2022-12-10T12:11:06.041Z,15.93
2022-12-10T12:14:17.297Z,17.60
2022-12-10T12:17:30.265Z,16.87
2022-12-10T12:20:38.885Z,18.10
2022-12-10T12:24:04.576Z,16.43
2022-12-10T12:27:14.691Z,18.13
2022-12-10T12:30:20.466Z,17.97
2022-12-10T12:33:25.122Z,18.60
2022-12-10T12:36:35.726Z,19.60
2022-12-10T12:39:51.292Z,18.37
2022-12-10T12:43:19.033Z,19.30
2022-12-10T12:46:38.449Z,17.97
2022-12-10T12:49:42.661Z,19.37
2022-12-10T12:52:52.228Z,18.43
2022-12-10T12:56:07.087Z,18.43
2022-12-10T12:59:21.069Z,16.43
2022-12-10T13:02:41.929Z,17.87
2022-12-10T13:05:45.158Z,18.10
2022-12-10T13:09:08.655Z,19.93
2022-12-10T13:12:16.588Z,18.70
2022-12-10T13:15:37.511Z,20.13
2022-12-10T13:18:40.940Z,19.33
2022-12-10T13:21:51.913Z,19.07
2022-12-10T13:25:14.727Z,19.80
2022-12-10T13:28:41.539Z,18.90
2022-12-10T13:31:58.100Z,18.03
2022-12-10T13:35:08.928Z,18.43
2022-12-10T13:38:26.722Z,24.07
2022-12-10T13:41:47.328Z,19.77
2022-12-10T13:45:00.260Z,17.80
2022-12-10T13:48:21.021Z,18.97
2022-12-10T13:51:28.731Z,17.20
2022-12-10T13:55:22.289Z,17.37
2022-12-10T13:59:12.124Z,17.03
2022-12-10T14:02:25.801Z,17.43
2022-12-10T14:05:48.906Z,17.87
2022-12-10T14:09:11.839Z,18.03
2022-12-10T14:12:21.752Z,17.47
2022-12-10T14:15:26.514Z,17.83
2022-12-10T14:18:31.354Z,19.17
2022-12-10T14:21:39.996Z,19.27
2022-12-10T14:24:44.434Z,18.53
2022-12-10T14:27:54.435Z,20.93
2022-12-10T14:30:56.461Z,18.50
2022-12-10T14:34:06.237Z,18.27
2022-12-10T14:37:14.546Z,18.77
2022-12-10T14:40:24.754Z,16.77
2022-12-10T14:43:36.829Z,17.93
2022-12-10T14:46:38.886Z,17.07
2022-12-10T14:49:44.444Z,18.87
2022-12-10T14:52:51.988Z,18.83
2022-12-10T14:55:59.156Z,17.77
2022-12-10T14:59:22.241Z,17.50
2022-12-10T15:02:34.950Z,17.53
2022-12-10T15:05:38.182Z,16.97
2022-12-10T15:08:43.920Z,16.73
2022-12-10T15:11:46.167Z,16.50
2022-12-10T15:14:48.974Z,17.27
2022-12-10T15:18:02.177Z,17.63
2022-12-10T15:21:06.491Z,18.63
2022-12-10T15:24:16.960Z,18.50
2022-12-10T15:27:25.616Z,17.57
2022-12-10T15:30:41.051Z,18.10
2022-12-10T15:34:08.584Z,19.43
2022-12-10T15:37:42.355Z,18.00
2022-12-10T15:40:45.386Z,18.50
2022-12-10T15:44:05.869Z,18.67
2022-12-10T15:47:25.293Z,18.53
2022-12-10T15:50:31.259Z,17.97
2022-12-10T15:53:39.737Z,18.00
2022-12-10T15:56:44.137Z,18.77
2022-12-10T15:59:49.795Z,17.47
2022-12-10T16:02:58.135Z,18.90
2022-12-10T16:06:00.546Z,18.47
2022-12-10T16:09:03.998Z,18.70
2022-12-10T16:12:11.855Z,19.47
2022-12-10T16:15:22.130Z,19.43
2022-12-10T16:18:28.273Z,19.30
2022-12-10T16:21:34.929Z,17.10
2022-12-10T16:24:43.567Z,18.57
2022-12-10T16:27:48.519Z,18.30
2022-12-10T16:30:56.472Z,17.07
2022-12-10T16:33:59.402Z,18.10
2022-12-10T16:37:02.298Z,18.63
2022-12-10T16:40:05.307Z,18.47
2022-12-10T16:43:19.831Z,18.07
2022-12-10T16:46:26.029Z,18.90
2022-12-10T16:49:28.634Z,19.50
2022-12-10T16:52:31.871Z,18.30
2022-12-10T16:55:35.769Z,18.80
2022-12-10T16:58:38.169Z,19.57
2022-12-10T17:01:40.496Z,19.27
2022-12-10T17:04:43.047Z,19.00
2022-12-10T17:07:45.326Z,20.40
2022-12-10T17:11:07.923Z,19.83
2022-12-10T17:14:31.758Z,20.13
2022-12-10T17:17:33.854Z,18.77
2022-12-10T17:20:36.166Z,20.80
2022-12-10T17:23:38.739Z,19.67
2022-12-10T17:26:45.318Z,18.40
2022-12-10T17:29:54.905Z,20.47
2022-12-10T17:32:57.692Z,21.07
2022-12-10T17:36:00.003Z,19.40
2022-12-10T17:39:02.845Z,19.57
2022-12-10T17:42:06.077Z,20.23
2022-12-10T17:45:08.960Z,21.40
2022-12-10T17:48:20.387Z,20.63
2022-12-10T17:51:23.530Z,21.40
2022-12-10T17:54:27.609Z,20.80
2022-12-10T17:57:29.954Z,21.30
2022-12-10T18:00:34.505Z,21.37
2022-12-10T18:03:40.879Z,20.93
2022-12-10T18:06:43.067Z,22.73
2022-12-10T18:09:45.231Z,21.13
2022-12-10T18:12:48.083Z,21.87
2022-12-10T18:15:51.609Z,22.90
2022-12-10T18:18:56.119Z,21.73
2022-12-10T18:21:58.964Z,22.50
2022-12-10T18:25:01.336Z,22.47
2022-12-10T18:28:40.049Z,23.33
2022-12-10T18:31:46.494Z,22.90
2022-12-10T18:34:48.768Z,22.47
2022-12-10T18:37:52.570Z,22.27
2022-12-10T18:40:56.357Z,23.00
2022-12-10T18:43:59.376Z,24.00
2022-12-10T18:47:01.967Z,22.77
2022-12-10T18:50:05.585Z,22.53
2022-12-10T18:53:12.554Z,22.83
2022-12-10T18:56:22.628Z,21.77
2022-12-10T18:59:25.267Z,21.73
2022-12-10T19:02:28.199Z,22.13
2022-12-10T19:05:31.354Z,21.77
2022-12-10T19:08:55.090Z,22.27
2022-12-10T19:11:57.399Z,20.20
2022-12-10T19:15:00.131Z,20.00
2022-12-10T19:18:04.607Z,20.30
2022-12-10T19:21:09.464Z,21.13
2022-12-10T19:24:16.620Z,19.93
2022-12-10T19:27:19.931Z,20.93
2022-12-10T19:30:26.475Z,20.50
2022-12-10T19:33:29.226Z,20.47
2022-12-10T19:36:32.300Z,19.83
2022-12-10T19:39:36.385Z,19.23
2022-12-10T19:42:39.225Z,19.77
2022-12-10T19:45:41.870Z,19.30
2022-12-10T19:48:46.931Z,17.10
2022-12-10T19:51:50.705Z,18.23
2022-12-10T19:54:53.503Z,18.93
2022-12-10T19:57:56.815Z,17.87
2022-12-10T20:01:05.783Z,18.37
2022-12-10T20:04:08.970Z,17.93
2022-12-10T20:07:13.934Z,18.63
2022-12-10T20:10:35.280Z,19.47
2022-12-10T20:13:39.853Z,20.17
2022-12-10T20:16:45.319Z,20.83
2022-12-10T20:19:48.449Z,20.90
2022-12-10T20:22:52.315Z,20.77
2022-12-10T20:25:56.354Z,19.33
2022-12-10T20:29:00.908Z,20.80
2022-12-10T20:32:04.849Z,19.90
2022-12-10T20:35:09.265Z,20.97
2022-12-10T20:38:13.905Z,21.43
2022-12-10T20:41:19.057Z,22.03
2022-12-10T20:44:23.826Z,21.13
2022-12-10T20:47:27.088Z,19.83
2022-12-10T20:50:31.739Z,19.03
2022-12-10T20:53:39.128Z,20.50
2022-12-10T20:56:44.157Z,19.57
2022-12-10T20:59:47.425Z,17.40
2022-12-10T21:02:51.475Z,16.87
2022-12-10T21:05:56.303Z,19.73
2022-12-10T21:09:00.743Z,19.37
2022-12-10T21:12:04.784Z,20.27
2022-12-10T21:15:16.546Z,21.23
2022-12-10T21:18:25.170Z,19.10
2022-12-10T21:21:28.683Z,22.07
2022-12-10T21:24:31.378Z,22.13
2022-12-10T21:27:33.664Z,20.70
2022-12-10T21:30:35.913Z,23.23
2022-12-10T21:33:39.902Z,21.67
2022-12-10T21:36:42.371Z,21.70
2022-12-10T21:39:45.090Z,21.77
2022-12-10T21:43:05.704Z,21.83
2022-12-10T21:46:11.074Z,22.40
2022-12-10T21:49:13.598Z,22.17
2022-12-10T21:52:17.169Z,21.80
2022-12-10T21:55:24.053Z,20.20
2022-12-10T21:58:29.098Z,21.20
2022-12-10T22:01:31.385Z,19.63
2022-12-10T22:04:33.368Z,20.13
2022-12-10T22:07:37.206Z,20.60
2022-12-10T22:10:39.250Z,20.20
2022-12-10T22:13:41.379Z,19.77
2022-12-10T22:16:48.133Z,19.87
2022-12-10T22:19:50.926Z,18.97
2022-12-10T22:22:53.128Z,19.17
2022-12-10T22:25:57.555Z,17.77
2022-12-10T22:28:59.922Z,17.23
2022-12-10T22:32:01.946Z,17.63
2022-12-10T22:35:04.081Z,16.33
2022-12-10T22:38:06.309Z,16.97
2022-12-10T22:41:08.445Z,16.37
2022-12-10T22:44:11.143Z,16.60
2022-12-10T22:47:13.080Z,16.33
2022-12-10T22:50:15.203Z,16.23
2022-12-10T22:53:17.284Z,15.60
2022-12-10T22:56:19.548Z,16.57
2022-12-10T22:59:21.512Z,15.90
2022-12-10T23:02:23.434Z,15.10
2022-12-10T23:05:25.495Z,16.50
2022-12-10T23:08:28.770Z,16.70
2022-12-10T23:11:30.798Z,17.07
2022-12-10T23:14:34.006Z,17.87
2022-12-10T23:17:36.043Z,16.73
2022-12-10T23:20:38.483Z,16.73
2022-12-10T23:23:40.435Z,16.83
2022-12-10T23:26:44.440Z,17.37
2022-12-10T23:29:46.775Z,17.63
2022-12-10T23:32:48.974Z,19.17
2022-12-10T23:35:50.937Z,18.27
2022-12-10T23:38:52.970Z,19.00
2022-12-10T23:41:54.942Z,17.90
2022-12-10T23:44:58.102Z,19.77
2022-12-10T23:48:00.715Z,19.43
2022-12-10T23:51:02.952Z,19.93
2022-12-10T23:54:05.154Z,18.87
2022-12-10T23:57:07.136Z,19.90
